Gallagher, West Virginia
Current Conditions -  °F | °C
As of 1:54 PM on Saturday 20 Dec 2014 (Local Time) from KCRW Reporting Station
Overcast Overcast  
Wind Chill: 35°   Ceiling: 8000
Heat Index: 35°   Visibility: 10mi
Dew Point: 24°   Wind: 3mph
Humidity: 64%   Direction: 300°WNW
Pressure: 30.21"   Gusts: NA
Location:  38.17°N, 81.4°W
Report Text: KCRW 201854Z 30003KT 10SM FEW050 BKN080 OVC110 02/M04 A3021 RMK AO2 SLP237 OCNL BINOVC T00171044
Loading
Personal Weather Stations






























Interactive Weather Map New forecast layout! Learn more

10-Day Weather Forecast

Advertisements
Track Severe Weather on mobile